createdAt,value
2019-01-04T00:00:48.099Z,4.20
2019-01-04T00:03:17.770Z,4.20
2019-01-04T00:05:47.562Z,4.20
2019-01-04T00:08:17.248Z,4.20
2019-01-04T00:10:47.019Z,4.20
2019-01-04T00:13:16.696Z,4.20
2019-01-04T00:15:46.403Z,4.20
2019-01-04T00:18:16.113Z,4.20
2019-01-04T00:20:45.808Z,4.10
2019-01-04T00:23:15.801Z,4.10
2019-01-04T00:25:45.516Z,4.10
2019-01-04T00:28:15.216Z,4.10
2019-01-04T00:30:44.895Z,4.10
2019-01-04T00:33:14.582Z,4.10
2019-01-04T00:35:44.293Z,4.10
2019-01-04T00:38:14.025Z,4.10
2019-01-04T00:40:43.748Z,4.10
2019-01-04T00:43:13.464Z,4.10
2019-01-04T00:45:43.183Z,4.10
2019-01-04T00:48:12.868Z,4.10
2019-01-04T00:50:42.586Z,4.10
2019-01-04T00:53:12.273Z,4.10
2019-01-04T00:56:27.923Z,4.10
2019-01-04T00:59:18.168Z,4.00
2019-01-04T01:02:30.993Z,4.00
2019-01-04T01:06:02.835Z,4.00
2019-01-04T01:08:54.626Z,4.00
2019-01-04T01:12:09.315Z,4.00
2019-01-04T01:15:06.425Z,3.90
2019-01-04T01:18:11.885Z,3.90
2019-01-04T01:21:17.446Z,3.90
2019-01-04T01:24:15.931Z,3.80
2019-01-04T01:27:28.072Z,3.80
2019-01-04T01:30:21.155Z,3.70
2019-01-04T01:33:30.670Z,3.70
2019-01-04T01:36:35.258Z,3.70
2019-01-04T01:39:51.396Z,3.70
2019-01-04T01:43:11.225Z,3.70
2019-01-04T01:46:20.804Z,3.70
2019-01-04T01:49:22.403Z,3.70
2019-01-04T01:52:18.375Z,3.80
2019-01-04T01:54:48.044Z,3.70
2019-01-04T01:57:17.753Z,3.80
2019-01-04T01:59:47.422Z,3.80
2019-01-04T02:02:17.153Z,3.80
2019-01-04T02:04:46.855Z,3.90
2019-01-04T02:07:16.578Z,3.80
2019-01-04T02:09:46.307Z,3.90
2019-01-04T02:12:16.022Z,3.90
2019-01-04T02:14:45.696Z,3.90
2019-01-04T02:17:15.552Z,3.90
2019-01-04T02:19:45.236Z,3.90
2019-01-04T02:22:14.932Z,3.90
2019-01-04T02:24:44.626Z,3.90
2019-01-04T02:27:14.377Z,4.00
2019-01-04T02:29:44.047Z,4.00
2019-01-04T02:32:13.782Z,4.00
2019-01-04T02:34:43.480Z,4.00
2019-01-04T02:37:13.245Z,4.00
2019-01-04T02:39:42.930Z,4.00
2019-01-04T02:42:12.639Z,4.00
2019-01-04T02:44:42.311Z,4.00
2019-01-04T02:47:12.077Z,4.00
2019-01-04T02:49:41.772Z,4.00
2019-01-04T02:52:11.518Z,4.00
2019-01-04T02:54:41.194Z,4.00
2019-01-04T02:57:10.931Z,4.00
2019-01-04T02:59:40.612Z,4.00
2019-01-04T03:02:11.919Z,4.00
2019-01-04T03:04:41.602Z,4.00
2019-01-04T03:07:11.343Z,4.00
2019-01-04T03:09:41.075Z,4.10
2019-01-04T03:12:11.841Z,4.10
2019-01-04T03:14:41.829Z,4.10
2019-01-04T03:17:11.580Z,4.10
2019-01-04T03:19:41.284Z,4.10
2019-01-04T03:22:11.054Z,4.10
2019-01-04T03:24:40.732Z,4.10
2019-01-04T03:27:10.482Z,4.10
2019-01-04T03:29:40.174Z,4.10
2019-01-04T03:32:09.895Z,4.10
2019-01-04T03:34:39.606Z,4.20
2019-01-04T03:37:09.349Z,4.20
2019-01-04T03:39:39.008Z,4.10
2019-01-04T03:42:08.737Z,4.10
2019-01-04T03:44:38.442Z,4.10
2019-01-04T03:47:08.113Z,4.10
2019-01-04T03:49:37.897Z,4.10
2019-01-04T03:52:07.596Z,4.10
2019-01-04T03:54:37.313Z,4.20
2019-01-04T03:57:06.990Z,4.20
2019-01-04T03:59:36.705Z,4.20
2019-01-04T04:02:06.399Z,4.20
2019-01-04T04:04:36.116Z,4.20
2019-01-04T04:07:05.771Z,4.20
2019-01-04T04:09:35.765Z,4.20
2019-01-04T04:12:05.432Z,4.20
2019-01-04T04:14:35.157Z,4.20
2019-01-04T04:17:04.859Z,4.20
2019-01-04T04:19:34.508Z,4.20
2019-01-04T04:22:04.200Z,4.20
2019-01-04T04:24:33.934Z,4.20
2019-01-04T04:27:03.592Z,4.20
2019-01-04T04:29:33.314Z,4.20
2019-01-04T04:32:02.976Z,4.20
2019-01-04T04:34:32.705Z,4.20
2019-01-04T04:37:02.388Z,4.20
2019-01-04T04:39:32.100Z,4.20
2019-01-04T04:42:01.815Z,4.20
2019-01-04T04:44:31.585Z,4.30
2019-01-04T04:47:01.300Z,4.30
2019-01-04T04:49:31.012Z,4.30
2019-01-04T04:52:00.653Z,4.30
2019-01-04T04:54:30.373Z,4.30
2019-01-04T04:57:00.038Z,4.30
2019-01-04T04:59:29.760Z,4.30
2019-01-04T05:01:59.453Z,4.30
2019-01-04T05:04:29.164Z,4.30
2019-01-04T05:06:58.851Z,4.30
2019-01-04T05:09:28.693Z,4.30
2019-01-04T05:11:58.374Z,4.30
2019-01-04T05:14:28.084Z,4.30
2019-01-04T05:16:57.786Z,4.20
2019-01-04T05:19:33.717Z,4.20
2019-01-04T05:22:03.440Z,4.30
2019-01-04T05:24:33.159Z,4.30
2019-01-04T05:27:02.859Z,4.30
2019-01-04T05:29:32.564Z,4.20
2019-01-04T05:32:02.285Z,4.30
2019-01-04T05:34:31.997Z,4.30
2019-01-04T05:37:01.688Z,4.30
2019-01-04T05:39:31.442Z,4.20
2019-01-04T05:42:01.121Z,4.30
2019-01-04T05:44:30.884Z,4.30
2019-01-04T05:47:00.560Z,4.30
2019-01-04T05:49:30.283Z,4.30
2019-01-04T05:51:59.979Z,4.30
2019-01-04T05:54:29.710Z,4.30
2019-01-04T05:56:59.409Z,4.30
2019-01-04T05:59:29.141Z,4.30
2019-01-04T06:01:58.855Z,4.30
2019-01-04T06:04:28.581Z,4.30
2019-01-04T06:06:58.272Z,4.30
2019-01-04T06:09:28.012Z,4.20
2019-01-04T06:11:57.676Z,4.30
2019-01-04T06:14:27.388Z,4.30
2019-01-04T06:16:57.055Z,4.30
2019-01-04T06:19:26.774Z,4.30
2019-01-04T06:21:56.440Z,4.30
2019-01-04T06:24:26.184Z,4.30
2019-01-04T06:26:55.862Z,4.20
2019-01-04T06:29:25.617Z,4.30
2019-01-04T06:31:55.292Z,4.30
2019-01-04T06:34:25.002Z,4.30
2019-01-04T06:36:54.684Z,4.30
2019-01-04T06:39:24.376Z,4.30
2019-01-04T06:41:54.026Z,4.30
2019-01-04T06:44:23.713Z,4.30
2019-01-04T06:47:19.654Z,4.30
2019-01-04T06:49:50.472Z,4.30
2019-01-04T06:52:21.596Z,4.30
2019-01-04T06:55:37.755Z,4.30
2019-01-04T06:58:07.431Z,4.30
2019-01-04T07:00:37.139Z,4.30
2019-01-04T07:03:06.824Z,4.30
2019-01-04T07:05:36.555Z,4.20
2019-01-04T07:08:06.206Z,4.30
2019-01-04T07:10:35.952Z,4.30
2019-01-04T07:13:05.654Z,4.30
2019-01-04T07:15:35.402Z,4.30
2019-01-04T07:18:05.079Z,4.30
2019-01-04T07:20:34.763Z,4.30
2019-01-04T07:23:04.429Z,4.30
2019-01-04T07:25:34.113Z,4.30
2019-01-04T07:28:03.789Z,4.30
2019-01-04T07:30:33.533Z,4.30
2019-01-04T07:33:03.214Z,4.30
2019-01-04T07:35:32.894Z,4.30
2019-01-04T07:38:02.571Z,4.30
2019-01-04T07:40:32.295Z,4.30
2019-01-04T07:43:02.013Z,4.30
2019-01-04T07:45:31.708Z,4.30
2019-01-04T07:48:01.381Z,4.30
2019-01-04T07:50:31.110Z,4.30
2019-01-04T07:53:00.779Z,4.30
2019-01-04T07:55:30.463Z,4.30
2019-01-04T07:58:00.121Z,4.30
2019-01-04T08:00:29.812Z,4.30
2019-01-04T08:03:20.252Z,4.40
2019-01-04T08:05:50.282Z,4.30
2019-01-04T08:08:19.957Z,4.30
2019-01-04T08:10:49.655Z,4.40
2019-01-04T08:13:19.332Z,4.30
2019-01-04T08:15:49.080Z,4.40
2019-01-04T08:18:18.729Z,4.40
2019-01-04T08:20:48.435Z,4.40
2019-01-04T08:23:18.080Z,4.40
2019-01-04T08:25:47.784Z,4.40
2019-01-04T08:28:17.431Z,4.40
2019-01-04T08:30:47.153Z,4.40
2019-01-04T08:33:16.825Z,4.50
2019-01-04T08:35:46.526Z,4.50
2019-01-04T08:38:16.184Z,4.50
2019-01-04T08:40:45.891Z,4.50
2019-01-04T08:43:15.589Z,4.50
2019-01-04T08:45:45.237Z,4.50
2019-01-04T08:48:14.952Z,4.60
2019-01-04T08:50:44.624Z,4.60
2019-01-04T08:53:14.326Z,4.60
2019-01-04T08:55:43.988Z,4.60
2019-01-04T08:58:13.693Z,4.60
2019-01-04T09:00:43.379Z,4.60
2019-01-04T09:03:13.090Z,4.60
2019-01-04T09:05:42.765Z,4.60
2019-01-04T09:08:12.477Z,4.60
2019-01-04T09:10:42.178Z,4.60
2019-01-04T09:13:11.902Z,4.60
2019-01-04T09:15:41.579Z,4.60
2019-01-04T09:18:11.280Z,4.60
2019-01-04T09:20:40.951Z,4.60
2019-01-04T09:23:10.722Z,4.70
2019-01-04T09:25:40.521Z,4.70
2019-01-04T09:28:10.289Z,4.70
2019-01-04T09:30:39.913Z,4.70
2019-01-04T09:33:09.633Z,4.70
2019-01-04T09:35:39.327Z,4.70
2019-01-04T09:38:09.207Z,4.80
2019-01-04T09:40:40.146Z,4.80
2019-01-04T09:43:10.002Z,4.80
2019-01-04T09:45:39.752Z,4.80
2019-01-04T09:48:09.449Z,4.90
2019-01-04T09:50:39.253Z,4.90
2019-01-04T09:53:08.925Z,4.90
2019-01-04T09:55:38.624Z,4.90
2019-01-04T09:58:08.372Z,4.90
2019-01-04T10:00:37.961Z,4.90
2019-01-04T10:03:07.618Z,5.00
2019-01-04T10:05:37.299Z,5.00
2019-01-04T10:08:07.011Z,5.00
2019-01-04T10:10:36.771Z,5.00
2019-01-04T10:13:06.496Z,5.10
2019-01-04T10:15:36.208Z,5.10
2019-01-04T10:18:05.962Z,5.10
2019-01-04T10:20:35.650Z,5.10
2019-01-04T10:23:05.810Z,5.10
2019-01-04T10:25:36.215Z,5.20
2019-01-04T10:28:08.988Z,5.20
2019-01-04T10:30:38.647Z,5.20
2019-01-04T10:33:08.371Z,5.20
2019-01-04T10:35:38.091Z,5.20
2019-01-04T10:38:07.894Z,5.20
2019-01-04T10:40:37.609Z,5.30
2019-01-04T10:43:07.413Z,5.30
2019-01-04T10:45:37.051Z,5.30
2019-01-04T10:48:06.739Z,5.40
2019-01-04T10:50:36.423Z,5.40
2019-01-04T10:53:06.156Z,5.40
2019-01-04T10:55:35.901Z,5.40
2019-01-04T10:58:06.059Z,5.40
2019-01-04T11:00:35.863Z,5.40
2019-01-04T11:03:05.567Z,5.40
2019-01-04T11:05:35.273Z,5.40
2019-01-04T11:08:04.932Z,5.40
2019-01-04T11:10:34.747Z,5.40
2019-01-04T11:13:04.419Z,5.40
2019-01-04T11:15:34.087Z,5.40
2019-01-04T11:18:09.784Z,5.40
2019-01-04T11:20:53.573Z,5.50
2019-01-04T11:24:00.493Z,5.50
2019-01-04T11:26:43.186Z,5.50
2019-01-04T11:29:32.111Z,5.50
2019-01-04T11:32:24.224Z,5.50
2019-01-04T11:35:27.163Z,5.50
2019-01-04T11:38:32.578Z,5.50
2019-01-04T11:41:33.779Z,5.50
2019-01-04T11:44:59.939Z,5.50
2019-01-04T11:48:04.661Z,5.40
2019-01-04T11:51:27.626Z,5.40
2019-01-04T11:53:57.278Z,5.40
2019-01-04T11:56:27.008Z,5.40
2019-01-04T11:58:56.693Z,5.40
2019-01-04T12:01:26.393Z,5.40
2019-01-04T12:04:00.166Z,5.40
2019-01-04T12:06:29.977Z,5.40
2019-01-04T12:08:59.694Z,5.40
2019-01-04T12:11:29.450Z,5.40
2019-01-04T12:13:59.089Z,5.40
2019-01-04T12:16:28.790Z,5.40
2019-01-04T12:18:58.485Z,5.40
2019-01-04T12:21:28.192Z,5.40
2019-01-04T12:23:57.877Z,5.40
2019-01-04T12:26:27.598Z,5.50
2019-01-04T12:28:57.275Z,5.50
2019-01-04T12:31:26.986Z,5.50
2019-01-04T12:33:56.753Z,5.50
2019-01-04T12:36:26.438Z,5.50
2019-01-04T12:38:56.132Z,5.50
2019-01-04T12:41:25.849Z,5.50
2019-01-04T12:43:55.667Z,5.50
2019-01-04T12:46:26.275Z,5.50
2019-01-04T12:48:55.916Z,5.60
2019-01-04T12:51:25.568Z,5.60
2019-01-04T12:53:55.251Z,5.60
2019-01-04T12:56:25.071Z,5.60
2019-01-04T12:58:54.731Z,5.60
2019-01-04T13:01:24.437Z,5.60
2019-01-04T13:03:54.107Z,5.60
2019-01-04T13:06:23.837Z,5.60
2019-01-04T13:08:53.495Z,5.60
2019-01-04T13:11:23.168Z,5.60
2019-01-04T13:13:52.856Z,5.60
2019-01-04T13:16:22.529Z,5.60
2019-01-04T13:18:52.284Z,5.60
2019-01-04T13:21:22.356Z,5.60
2019-01-04T13:23:52.068Z,5.60
2019-01-04T13:26:21.728Z,5.60
2019-01-04T13:28:51.642Z,5.60
2019-01-04T13:31:21.723Z,5.60
2019-01-04T13:33:51.406Z,5.50
2019-01-04T13:36:21.120Z,5.50
2019-01-04T13:38:50.805Z,5.60
2019-01-04T13:41:20.490Z,5.50
2019-01-04T13:43:50.189Z,5.50
2019-01-04T13:46:19.842Z,5.50
2019-01-04T13:48:49.668Z,5.60
2019-01-04T13:51:19.416Z,5.60
2019-01-04T13:53:49.141Z,5.60
2019-01-04T13:56:18.817Z,5.60
2019-01-04T13:58:48.500Z,5.60
2019-01-04T14:01:18.121Z,5.60
2019-01-04T14:03:48.039Z,5.60
2019-01-04T14:06:17.756Z,5.60
2019-01-04T14:08:47.453Z,5.60
2019-01-04T14:11:17.119Z,5.60
2019-01-04T14:13:47.406Z,5.60
2019-01-04T14:16:17.048Z,5.60
2019-01-04T14:18:46.739Z,5.60
2019-01-04T14:21:16.421Z,5.60
2019-01-04T14:23:46.184Z,5.60
2019-01-04T14:26:15.838Z,5.60
2019-01-04T14:28:45.540Z,5.60
2019-01-04T14:31:15.218Z,5.60
2019-01-04T14:33:44.903Z,5.60
2019-01-04T14:36:14.579Z,5.60
2019-01-04T14:38:44.283Z,5.60
2019-01-04T14:41:14.078Z,5.60
2019-01-04T14:43:43.762Z,5.60
2019-01-04T14:46:13.469Z,5.60
2019-01-04T14:48:43.190Z,5.60
2019-01-04T14:51:13.072Z,5.60
2019-01-04T14:53:42.847Z,5.50
2019-01-04T14:56:13.820Z,5.50
2019-01-04T14:58:43.529Z,5.50
2019-01-04T15:01:13.253Z,5.50
2019-01-04T15:03:42.995Z,5.50
2019-01-04T15:06:12.628Z,5.50
2019-01-04T15:08:42.360Z,5.50
2019-01-04T15:11:12.071Z,5.50
2019-01-04T15:13:41.786Z,5.50
2019-01-04T15:16:12.302Z,5.50
2019-01-04T15:18:42.019Z,5.50
2019-01-04T15:21:11.768Z,5.50
2019-01-04T15:23:41.497Z,5.50
2019-01-04T15:26:11.206Z,5.50
2019-01-04T15:28:40.929Z,5.50
2019-01-04T15:31:10.612Z,5.50
2019-01-04T15:33:40.298Z,5.50
2019-01-04T15:36:09.950Z,5.50
2019-01-04T15:38:39.626Z,5.50
2019-01-04T15:41:09.302Z,5.50
2019-01-04T15:43:39.008Z,5.50
2019-01-04T15:46:08.665Z,5.50
2019-01-04T15:48:38.386Z,5.50
2019-01-04T15:51:08.068Z,5.50
2019-01-04T15:53:37.812Z,5.50
2019-01-04T15:56:07.462Z,5.50
2019-01-04T15:58:37.099Z,5.50
2019-01-04T16:01:06.829Z,5.50
2019-01-04T16:03:36.468Z,5.50
2019-01-04T16:06:06.161Z,5.50
2019-01-04T16:08:35.857Z,5.50
2019-01-04T16:11:05.584Z,5.50
2019-01-04T16:13:35.215Z,5.50
2019-01-04T16:16:04.951Z,5.60
2019-01-04T16:18:34.610Z,5.60
2019-01-04T16:21:04.331Z,5.60
2019-01-04T16:23:33.961Z,5.60
2019-01-04T16:26:03.661Z,5.60
2019-01-04T16:28:33.304Z,5.60
2019-01-04T16:31:03.086Z,5.60
2019-01-04T16:33:32.882Z,5.60
2019-01-04T16:36:02.591Z,5.60
2019-01-04T16:38:32.231Z,5.60
2019-01-04T16:41:01.984Z,5.60
2019-01-04T16:43:31.625Z,5.60
2019-01-04T16:46:01.347Z,5.60
2019-01-04T16:48:31.047Z,5.60
2019-01-04T16:51:01.284Z,5.60
2019-01-04T16:53:30.938Z,5.60
2019-01-04T16:56:00.630Z,5.60
2019-01-04T16:58:30.298Z,5.60
2019-01-04T17:01:00.022Z,5.60
2019-01-04T17:03:29.700Z,5.60
2019-01-04T17:05:59.441Z,5.60
2019-01-04T17:08:29.122Z,5.60
2019-01-04T17:10:58.867Z,5.60
2019-01-04T17:13:28.535Z,5.60
2019-01-04T17:15:58.271Z,5.60
2019-01-04T17:18:27.964Z,5.60
2019-01-04T17:20:57.689Z,5.60
2019-01-04T17:23:27.382Z,5.60
2019-01-04T17:25:57.088Z,5.50
2019-01-04T17:28:26.765Z,5.50
2019-01-04T17:30:56.472Z,5.50
2019-01-04T17:33:26.185Z,5.50
2019-01-04T17:35:55.939Z,5.50
2019-01-04T17:38:25.602Z,5.50
2019-01-04T17:40:55.310Z,5.50
2019-01-04T17:43:24.993Z,5.50
2019-01-04T17:45:54.709Z,5.50
2019-01-04T17:48:24.387Z,5.50
2019-01-04T17:50:54.191Z,5.50
2019-01-04T17:53:23.860Z,5.50
2019-01-04T17:55:53.582Z,5.50
2019-01-04T17:58:23.278Z,5.60
2019-01-04T18:00:55.199Z,5.60
2019-01-04T18:03:24.873Z,5.60
2019-01-04T18:05:54.592Z,5.60
2019-01-04T18:08:24.288Z,5.60
2019-01-04T18:10:54.077Z,5.60
2019-01-04T18:13:23.742Z,5.60
2019-01-04T18:15:53.474Z,5.60
2019-01-04T18:18:23.171Z,5.60
2019-01-04T18:20:52.961Z,5.60
2019-01-04T18:23:22.674Z,5.60
2019-01-04T18:25:52.854Z,5.60
2019-01-04T18:28:22.469Z,5.60
2019-01-04T18:30:52.350Z,5.70
2019-01-04T18:33:22.014Z,5.70
2019-01-04T18:35:51.921Z,5.70
2019-01-04T18:38:21.572Z,5.70
2019-01-04T18:40:51.299Z,5.70
2019-01-04T18:43:20.964Z,5.70
2019-01-04T18:45:51.337Z,5.70
2019-01-04T18:48:21.058Z,5.70
2019-01-04T18:50:53.780Z,5.70
2019-01-04T18:53:23.991Z,5.70
2019-01-04T18:55:53.826Z,5.70
2019-01-04T18:58:23.508Z,5.70
2019-01-04T19:00:53.265Z,5.70
2019-01-04T19:03:22.941Z,5.70
2019-01-04T19:05:53.063Z,5.70
2019-01-04T19:08:22.788Z,5.70
2019-01-04T19:10:52.488Z,5.70
2019-01-04T19:13:26.795Z,5.80
2019-01-04T19:15:55.058Z,5.80
2019-01-04T19:18:24.820Z,5.80
2019-01-04T19:20:54.513Z,5.70
2019-01-04T19:23:24.288Z,5.70
2019-01-04T19:25:54.249Z,5.70
2019-01-04T19:28:23.942Z,5.70
2019-01-04T19:30:53.740Z,5.70
2019-01-04T19:33:23.484Z,5.80
2019-01-04T19:35:53.160Z,5.70
2019-01-04T19:38:22.862Z,5.70
2019-01-04T19:40:52.525Z,5.70
2019-01-04T19:43:22.229Z,5.70
2019-01-04T19:45:51.940Z,5.70
2019-01-04T19:48:21.632Z,5.70
2019-01-04T19:50:51.272Z,5.70
2019-01-04T19:53:20.985Z,5.70
2019-01-04T19:55:50.654Z,5.70
2019-01-04T19:58:20.369Z,5.80
2019-01-04T20:00:50.060Z,5.70
2019-01-04T20:03:19.763Z,5.70
2019-01-04T20:06:45.285Z,5.70
2019-01-04T20:10:15.526Z,5.70
2019-01-04T20:13:52.444Z,5.70
2019-01-04T20:16:53.502Z,5.60
2019-01-04T20:19:57.179Z,5.60
2019-01-04T20:22:57.819Z,5.50
2019-01-04T20:25:52.199Z,5.50
2019-01-04T20:28:40.772Z,5.50
2019-01-04T20:31:47.440Z,5.50
2019-01-04T20:34:42.266Z,5.50
2019-01-04T20:37:29.572Z,5.50
2019-01-04T20:40:15.473Z,5.50
2019-01-04T20:43:03.139Z,5.50
2019-01-04T20:45:57.511Z,5.50
2019-01-04T20:48:45.121Z,5.50
2019-01-04T20:51:32.324Z,5.50
2019-01-04T20:54:19.642Z,5.50
2019-01-04T20:57:17.246Z,5.60
2019-01-04T21:00:04.600Z,5.60
2019-01-04T21:02:53.217Z,5.60
2019-01-04T21:05:57.119Z,5.60
2019-01-04T21:09:01.042Z,5.60
2019-01-04T21:11:55.478Z,5.60
2019-01-04T21:15:02.497Z,5.60
2019-01-04T21:17:49.610Z,5.60
2019-01-04T21:20:56.321Z,5.60
2019-01-04T21:23:54.360Z,5.60
2019-01-04T21:26:57.940Z,5.60
2019-01-04T21:29:52.391Z,5.60
2019-01-04T21:32:46.798Z,5.60
2019-01-04T21:35:50.658Z,5.60
2019-01-04T21:38:37.905Z,5.60
2019-01-04T21:41:29.314Z,5.60
2019-01-04T21:44:26.832Z,5.60
2019-01-04T21:47:31.175Z,5.60
2019-01-04T21:50:18.511Z,5.60
2019-01-04T21:53:25.310Z,5.70
2019-01-04T21:56:26.157Z,5.60
2019-01-04T21:59:20.258Z,5.70
2019-01-04T22:02:08.806Z,5.60
2019-01-04T22:05:12.482Z,5.70
2019-01-04T22:08:10.001Z,5.70
2019-01-04T22:10:57.158Z,5.70
2019-01-04T22:13:44.064Z,5.70
2019-01-04T22:16:31.438Z,5.70
2019-01-04T22:19:13.584Z,5.70
2019-01-04T22:22:01.181Z,5.70
2019-01-04T22:24:49.779Z,5.70
2019-01-04T22:27:36.862Z,5.70
2019-01-04T22:30:16.160Z,5.70
2019-01-04T22:33:20.099Z,5.70
2019-01-04T22:36:23.713Z,5.70
2019-01-04T22:39:30.939Z,5.70
2019-01-04T22:42:18.211Z,5.70
2019-01-04T22:45:06.772Z,5.70
2019-01-04T22:47:55.301Z,5.70
2019-01-04T22:50:42.447Z,5.70
2019-01-04T22:53:31.016Z,5.70
2019-01-04T22:56:19.597Z,5.70
2019-01-04T22:59:23.465Z,5.70
2019-01-04T23:02:12.031Z,5.70
2019-01-04T23:05:03.486Z,5.80
2019-01-04T23:08:01.284Z,5.70
2019-01-04T23:10:48.887Z,5.70
2019-01-04T23:13:40.269Z,5.80
2019-01-04T23:16:23.317Z,5.80
2019-01-04T23:19:17.775Z,5.80
2019-01-04T23:22:29.124Z,5.70
2019-01-04T23:25:17.706Z,5.70
2019-01-04T23:28:15.336Z,5.70
2019-01-04T23:31:02.546Z,5.70
2019-01-04T23:33:49.607Z,5.70
2019-01-04T23:36:36.845Z,5.70
2019-01-04T23:39:26.310Z,5.70
2019-01-04T23:42:13.571Z,5.70
2019-01-04T23:45:00.704Z,5.70
2019-01-04T23:47:52.039Z,5.70
2019-01-04T23:50:39.298Z,5.70
2019-01-04T23:53:26.442Z,5.70
2019-01-04T23:56:27.201Z,5.70
2019-01-04T23:59:28.565Z,5.70
